sensor_id;sensor_type;location;lat;lon;timestamp;pressure;altitude;pressure_sealevel;temperature;humidity
32067;BME280;18573;47.890;35.066;2023-07-20T00:00:08;99998.59;;;23.15;47.39
32067;BME280;18573;47.890;35.066;2023-07-20T00:02:37;100007.06;;;23.14;47.10
32067;BME280;18573;47.890;35.066;2023-07-20T00:05:06;100009.67;;;23.08;47.80
32067;BME280;18573;47.890;35.066;2023-07-20T00:07:35;99999.81;;;23.09;48.05
32067;BME280;18573;47.890;35.066;2023-07-20T00:10:06;99999.80;;;22.98;48.47
32067;BME280;18573;47.890;35.066;2023-07-20T00:12:35;99998.12;;;22.99;48.82
32067;BME280;18573;47.890;35.066;2023-07-20T00:15:05;100005.02;;;23.08;48.05
32067;BME280;18573;47.890;35.066;2023-07-20T00:17:34;100005.02;;;23.08;48.05
32067;BME280;18573;47.890;35.066;2023-07-20T00:20:06;99998.08;;;23.02;47.87
32067;BME280;18573;47.890;35.066;2023-07-20T00:22:35;99998.08;;;23.02;47.87
32067;BME280;18573;47.890;35.066;2023-07-20T00:25:05;99994.11;;;22.97;47.53
32067;BME280;18573;47.890;35.066;2023-07-20T00:27:34;99999.29;;;22.96;47.70
32067;BME280;18573;47.890;35.066;2023-07-20T00:30:05;99999.29;;;22.96;47.70
32067;BME280;18573;47.890;35.066;2023-07-20T00:32:34;99997.77;;;23.04;47.82
32067;BME280;18573;47.890;35.066;2023-07-20T00:35:04;99998.05;;;22.91;47.88
32067;BME280;18573;47.890;35.066;2023-07-20T00:37:33;99998.05;;;22.91;47.88
32067;BME280;18573;47.890;35.066;2023-07-20T00:40:03;99988.11;;;22.84;48.30
32067;BME280;18573;47.890;35.066;2023-07-20T00:42:37;99988.11;;;22.84;48.30
32067;BME280;18573;47.890;35.066;2023-07-20T00:45:07;99989.71;;;22.85;47.98
32067;BME280;18573;47.890;35.066;2023-07-20T00:47:37;99989.71;;;22.85;47.98
32067;BME280;18573;47.890;35.066;2023-07-20T00:50:06;99976.36;;;22.72;48.27
32067;BME280;18573;47.890;35.066;2023-07-20T00:52:36;99960.59;;;22.58;48.82
32067;BME280;18573;47.890;35.066;2023-07-20T00:55:08;99947.77;;;22.58;48.83
32067;BME280;18573;47.890;35.066;2023-07-20T00:57:38;99947.77;;;22.58;48.83
32067;BME280;18573;47.890;35.066;2023-07-20T01:00:08;99965.57;;;22.67;49.06
32067;BME280;18573;47.890;35.066;2023-07-20T01:02:38;99970.46;;;22.67;48.78
32067;BME280;18573;47.890;35.066;2023-07-20T01:05:08;99966.36;;;22.56;49.25
32067;BME280;18573;47.890;35.066;2023-07-20T01:07:42;99966.36;;;22.56;49.25
32067;BME280;18573;47.890;35.066;2023-07-20T01:11:07;99971.17;;;22.34;49.50
32067;BME280;18573;47.890;35.066;2023-07-20T01:12:55;99969.98;;;22.38;49.39
32067;BME280;18573;47.890;35.066;2023-07-20T01:15:25;99960.66;;;22.41;49.34
32067;BME280;18573;47.890;35.066;2023-07-20T01:17:54;99957.44;;;22.39;49.39
32067;BME280;18573;47.890;35.066;2023-07-20T01:20:23;99957.44;;;22.39;49.39
32067;BME280;18573;47.890;35.066;2023-07-20T01:23:31;99959.66;;;22.23;49.65
32067;BME280;18573;47.890;35.066;2023-07-20T01:29:09;99960.22;;;22.23;49.82
32067;BME280;18573;47.890;35.066;2023-07-20T01:31:37;99957.84;;;22.33;49.70
32067;BME280;18573;47.890;35.066;2023-07-20T01:34:08;99957.84;;;22.33;49.70
32067;BME280;18573;47.890;35.066;2023-07-20T01:36:39;99951.23;;;22.36;49.57
32067;BME280;18573;47.890;35.066;2023-07-20T01:39:08;99951.09;;;22.30;49.75
32067;BME280;18573;47.890;35.066;2023-07-20T01:41:38;99957.84;;;22.33;49.65
32067;BME280;18573;47.890;35.066;2023-07-20T01:44:07;99965.41;;;22.36;49.65
32067;BME280;18573;47.890;35.066;2023-07-20T01:46:37;99961.81;;;22.38;49.59
32067;BME280;18573;47.890;35.066;2023-07-20T01:49:06;99962.31;;;22.54;49.34
32067;BME280;18573;47.890;35.066;2023-07-20T01:51:35;99962.31;;;22.54;49.34
32067;BME280;18573;47.890;35.066;2023-07-20T01:54:05;99959.27;;;22.55;49.37
32067;BME280;18573;47.890;35.066;2023-07-20T01:56:34;99959.27;;;22.55;49.37
32067;BME280;18573;47.890;35.066;2023-07-20T01:59:03;99960.15;;;22.53;49.16
32067;BME280;18573;47.890;35.066;2023-07-20T02:01:33;99958.55;;;22.52;49.07
32067;BME280;18573;47.890;35.066;2023-07-20T02:04:02;99963.09;;;22.68;48.84
32067;BME280;18573;47.890;35.066;2023-07-20T02:06:31;99963.09;;;22.68;48.84
32067;BME280;18573;47.890;35.066;2023-07-20T02:09:00;99961.69;;;22.70;48.53
32067;BME280;18573;47.890;35.066;2023-07-20T02:11:30;99969.55;;;22.72;48.47
32067;BME280;18573;47.890;35.066;2023-07-20T02:13:59;99971.98;;;22.85;48.61
32067;BME280;18573;47.890;35.066;2023-07-20T02:16:28;99974.02;;;22.93;48.13
32067;BME280;18573;47.890;35.066;2023-07-20T02:18:58;99978.28;;;22.96;48.12
32067;BME280;18573;47.890;35.066;2023-07-20T02:21:27;99978.23;;;22.99;48.13
32067;BME280;18573;47.890;35.066;2023-07-20T02:23:56;99981.20;;;23.00;48.33
32067;BME280;18573;47.890;35.066;2023-07-20T02:26:25;99978.14;;;23.15;47.84
32067;BME280;18573;47.890;35.066;2023-07-20T02:28:54;99978.14;;;23.15;47.84
32067;BME280;18573;47.890;35.066;2023-07-20T02:31:23;99979.67;;;23.08;47.44
32067;BME280;18573;47.890;35.066;2023-07-20T02:33:52;99981.96;;;23.03;47.70
32067;BME280;18573;47.890;35.066;2023-07-20T02:36:22;99981.96;;;23.03;47.70
32067;BME280;18573;47.890;35.066;2023-07-20T02:38:51;99985.97;;;22.94;47.85
32067;BME280;18573;47.890;35.066;2023-07-20T02:41:20;99980.52;;;22.94;48.15
32067;BME280;18573;47.890;35.066;2023-07-20T02:43:49;99980.52;;;22.94;48.15
32067;BME280;18573;47.890;35.066;2023-07-20T02:46:19;99986.63;;;22.89;48.14
32067;BME280;18573;47.890;35.066;2023-07-20T02:48:48;99986.63;;;22.89;48.14
32067;BME280;18573;47.890;35.066;2023-07-20T02:51:17;99982.08;;;22.98;48.16
32067;BME280;18573;47.890;35.066;2023-07-20T02:53:47;99983.45;;;22.98;48.22
32067;BME280;18573;47.890;35.066;2023-07-20T02:56:16;99985.93;;;23.08;48.12
32067;BME280;18573;47.890;35.066;2023-07-20T02:58:46;99988.67;;;23.31;47.52
32067;BME280;18573;47.890;35.066;2023-07-20T03:01:15;99992.38;;;23.23;47.73
32067;BME280;18573;47.890;35.066;2023-07-20T03:03:44;99992.38;;;23.23;47.73
32067;BME280;18573;47.890;35.066;2023-07-20T03:06:17;99991.96;;;23.30;47.88
32067;BME280;18573;47.890;35.066;2023-07-20T03:08:47;99986.02;;;23.28;47.95
32067;BME280;18573;47.890;35.066;2023-07-20T03:11:19;99991.64;;;23.32;48.11
32067;BME280;18573;47.890;35.066;2023-07-20T03:13:49;99986.55;;;23.61;48.02
32067;BME280;18573;47.890;35.066;2023-07-20T03:16:19;99976.83;;;23.35;48.47
32067;BME280;18573;47.890;35.066;2023-07-20T03:18:49;99976.83;;;23.35;48.47
32067;BME280;18573;47.890;35.066;2023-07-20T03:21:18;99980.23;;;23.18;48.95
32067;BME280;18573;47.890;35.066;2023-07-20T03:23:47;99984.16;;;23.15;49.10
32067;BME280;18573;47.890;35.066;2023-07-20T03:26:16;99974.22;;;23.08;49.67
32067;BME280;18573;47.890;35.066;2023-07-20T03:28:46;99974.22;;;23.08;49.67
32067;BME280;18573;47.890;35.066;2023-07-20T03:31:15;99979.14;;;23.19;49.84
32067;BME280;18573;47.890;35.066;2023-07-20T03:33:44;99985.46;;;23.29;50.12
32067;BME280;18573;47.890;35.066;2023-07-20T03:36:13;99985.46;;;23.29;50.12
32067;BME280;18573;47.890;35.066;2023-07-20T03:38:42;99975.27;;;23.32;50.57
32067;BME280;18573;47.890;35.066;2023-07-20T03:41:11;99963.00;;;23.43;50.76
32067;BME280;18573;47.890;35.066;2023-07-20T03:43:42;99968.38;;;23.68;49.92
32067;BME280;18573;47.890;35.066;2023-07-20T03:46:12;99969.23;;;23.55;51.05
32067;BME280;18573;47.890;35.066;2023-07-20T03:48:41;99970.39;;;23.65;50.57
32067;BME280;18573;47.890;35.066;2023-07-20T03:51:10;99969.04;;;23.85;49.83
32067;BME280;18573;47.890;35.066;2023-07-20T03:53:39;99969.04;;;23.85;49.83
32067;BME280;18573;47.890;35.066;2023-07-20T03:56:08;99972.92;;;24.12;49.21
32067;BME280;18573;47.890;35.066;2023-07-20T03:58:37;99972.92;;;24.12;49.21
32067;BME280;18573;47.890;35.066;2023-07-20T04:01:06;99975.16;;;24.41;49.55
32067;BME280;18573;47.890;35.066;2023-07-20T04:03:37;99987.84;;;24.37;49.49
32067;BME280;18573;47.890;35.066;2023-07-20T04:06:06;99980.15;;;24.28;50.05
32067;BME280;18573;47.890;35.066;2023-07-20T04:08:36;99985.41;;;24.16;51.19
32067;BME280;18573;47.890;35.066;2023-07-20T04:11:06;99985.80;;;24.32;50.87
32067;BME280;18573;47.890;35.066;2023-07-20T04:13:35;99985.80;;;24.32;50.87
32067;BME280;18573;47.890;35.066;2023-07-20T04:16:04;99977.48;;;24.25;51.33
32067;BME280;18573;47.890;35.066;2023-07-20T04:18:33;99978.36;;;24.04;51.91
32067;BME280;18573;47.890;35.066;2023-07-20T04:21:04;99989.46;;;24.07;51.70
32067;BME280;18573;47.890;35.066;2023-07-20T04:23:33;99995.63;;;24.21;51.66
32067;BME280;18573;47.890;35.066;2023-07-20T04:26:03;99995.63;;;24.21;51.66
32067;BME280;18573;47.890;35.066;2023-07-20T04:28:34;99993.81;;;24.28;52.14
32067;BME280;18573;47.890;35.066;2023-07-20T04:31:14;100000.82;;;24.32;52.05
32067;BME280;18573;47.890;35.066;2023-07-20T04:33:44;100000.82;;;24.32;52.05
32067;BME280;18573;47.890;35.066;2023-07-20T04:36:13;100001.56;;;24.55;51.95
32067;BME280;18573;47.890;35.066;2023-07-20T04:38:44;100001.56;;;24.55;51.95
32067;BME280;18573;47.890;35.066;2023-07-20T04:41:14;100012.03;;;24.70;51.20
32067;BME280;18573;47.890;35.066;2023-07-20T04:43:44;100006.80;;;24.71;51.54
32067;BME280;18573;47.890;35.066;2023-07-20T04:46:14;100009.58;;;24.97;51.26
32067;BME280;18573;47.890;35.066;2023-07-20T04:48:44;100009.58;;;24.97;51.26
32067;BME280;18573;47.890;35.066;2023-07-20T04:51:14;100015.20;;;24.92;51.38
32067;BME280;18573;47.890;35.066;2023-07-20T04:53:44;100012.58;;;24.61;53.21
32067;BME280;18573;47.890;35.066;2023-07-20T04:56:14;100012.58;;;24.61;53.21
32067;BME280;18573;47.890;35.066;2023-07-20T04:58:43;100006.56;;;24.70;52.98
32067;BME280;18573;47.890;35.066;2023-07-20T05:01:13;100004.58;;;24.82;52.82
32067;BME280;18573;47.890;35.066;2023-07-20T05:03:42;99992.69;;;24.86;55.13
32067;BME280;18573;47.890;35.066;2023-07-20T05:06:11;99999.35;;;24.83;55.50
32067;BME280;18573;47.890;35.066;2023-07-20T05:08:41;99999.35;;;24.83;55.50
32067;BME280;18573;47.890;35.066;2023-07-20T05:11:11;99996.42;;;24.70;55.74
32067;BME280;18573;47.890;35.066;2023-07-20T05:13:41;99993.91;;;24.63;57.79
32067;BME280;18573;47.890;35.066;2023-07-20T05:16:10;99993.83;;;24.57;57.85
32067;BME280;18573;47.890;35.066;2023-07-20T05:18:40;99998.91;;;24.61;58.33
32067;BME280;18573;47.890;35.066;2023-07-20T05:21:09;99998.91;;;24.61;58.33
32067;BME280;18573;47.890;35.066;2023-07-20T05:23:39;99990.39;;;24.71;58.65
32067;BME280;18573;47.890;35.066;2023-07-20T05:26:08;99991.02;;;24.50;59.64
32067;BME280;18573;47.890;35.066;2023-07-20T05:28:37;99991.02;;;24.50;59.64
32067;BME280;18573;47.890;35.066;2023-07-20T05:31:07;99980.66;;;24.76;59.51
32067;BME280;18573;47.890;35.066;2023-07-20T05:33:36;99980.66;;;24.76;59.51
32067;BME280;18573;47.890;35.066;2023-07-20T05:36:05;99976.00;;;24.76;59.82
32067;BME280;18573;47.890;35.066;2023-07-20T05:38:34;99978.67;;;24.88;59.72
32067;BME280;18573;47.890;35.066;2023-07-20T05:41:03;99981.36;;;25.08;59.08
32067;BME280;18573;47.890;35.066;2023-07-20T05:43:32;99976.05;;;25.11;58.77
32067;BME280;18573;47.890;35.066;2023-07-20T05:46:02;99978.63;;;25.16;58.65
32067;BME280;18573;47.890;35.066;2023-07-20T05:48:35;99978.63;;;25.16;58.65
32067;BME280;18573;47.890;35.066;2023-07-20T05:51:04;99980.22;;;25.26;58.54
32067;BME280;18573;47.890;35.066;2023-07-20T05:53:35;99980.22;;;25.26;58.54
32067;BME280;18573;47.890;35.066;2023-07-20T05:56:05;99965.83;;;25.32;58.46
32067;BME280;18573;47.890;35.066;2023-07-20T05:58:33;99960.40;;;25.46;58.00
32067;BME280;18573;47.890;35.066;2023-07-20T06:01:04;99961.19;;;25.56;57.48
32067;BME280;18573;47.890;35.066;2023-07-20T06:03:34;99961.94;;;25.73;56.77
32067;BME280;18573;47.890;35.066;2023-07-20T06:06:04;99961.94;;;25.73;56.77
32067;BME280;18573;47.890;35.066;2023-07-20T06:08:33;99964.16;;;25.89;56.55
32067;BME280;18573;47.890;35.066;2023-07-20T06:11:04;99966.83;;;25.91;55.94
32067;BME280;18573;47.890;35.066;2023-07-20T06:13:33;99966.83;;;25.91;55.94
32067;BME280;18573;47.890;35.066;2023-07-20T06:16:03;99953.63;;;26.08;55.31
32067;BME280;18573;47.890;35.066;2023-07-20T06:18:32;99973.00;;;26.18;55.39
32067;BME280;18573;47.890;35.066;2023-07-20T06:21:03;99968.44;;;26.07;55.83
32067;BME280;18573;47.890;35.066;2023-07-20T06:23:32;99968.44;;;26.07;55.83
32067;BME280;18573;47.890;35.066;2023-07-20T06:26:01;99955.64;;;26.05;55.69
32067;BME280;18573;47.890;35.066;2023-07-20T06:28:30;99961.55;;;26.01;56.10
32067;BME280;18573;47.890;35.066;2023-07-20T06:31:03;99954.68;;;25.86;56.59
32067;BME280;18573;47.890;35.066;2023-07-20T06:33:32;99947.31;;;25.93;56.25
32067;BME280;18573;47.890;35.066;2023-07-20T06:36:03;99958.53;;;25.94;56.02
32067;BME280;18573;47.890;35.066;2023-07-20T06:38:34;99962.45;;;25.99;55.74
32067;BME280;18573;47.890;35.066;2023-07-20T06:41:03;99966.48;;;25.93;55.81
32067;BME280;18573;47.890;35.066;2023-07-20T06:43:34;99966.48;;;25.93;55.81
32067;BME280;18573;47.890;35.066;2023-07-20T06:46:05;99957.97;;;26.09;55.92
32067;BME280;18573;47.890;35.066;2023-07-20T06:48:34;99962.08;;;26.09;56.03
32067;BME280;18573;47.890;35.066;2023-07-20T06:51:05;99974.94;;;26.17;55.97
32067;BME280;18573;47.890;35.066;2023-07-20T06:53:34;99974.94;;;26.17;55.97
32067;BME280;18573;47.890;35.066;2023-07-20T06:56:03;99960.95;;;26.40;55.19
32067;BME280;18573;47.890;35.066;2023-07-20T06:58:33;99960.95;;;26.40;55.19
32067;BME280;18573;47.890;35.066;2023-07-20T07:01:07;99973.05;;;26.68;55.39
32067;BME280;18573;47.890;35.066;2023-07-20T07:03:36;99973.05;;;26.68;55.39
32067;BME280;18573;47.890;35.066;2023-07-20T07:06:05;99972.83;;;26.67;55.45
32067;BME280;18573;47.890;35.066;2023-07-20T07:08:34;99969.31;;;26.73;55.31
32067;BME280;18573;47.890;35.066;2023-07-20T07:11:05;99963.82;;;26.73;55.43
32067;BME280;18573;47.890;35.066;2023-07-20T07:13:34;99959.56;;;26.69;55.46
32067;BME280;18573;47.890;35.066;2023-07-20T07:16:04;99959.56;;;26.69;55.46
32067;BME280;18573;47.890;35.066;2023-07-20T07:18:35;99962.11;;;26.95;55.54
32067;BME280;18573;47.890;35.066;2023-07-20T07:21:04;99962.59;;;26.97;55.13
32067;BME280;18573;47.890;35.066;2023-07-20T07:23:34;99962.59;;;26.97;55.13
32067;BME280;18573;47.890;35.066;2023-07-20T07:26:03;99963.64;;;27.20;54.61
32067;BME280;18573;47.890;35.066;2023-07-20T07:28:32;99963.64;;;27.20;54.61
32067;BME280;18573;47.890;35.066;2023-07-20T07:31:06;99948.27;;;27.46;53.82
32067;BME280;18573;47.890;35.066;2023-07-20T07:33:35;99941.84;;;27.42;53.92
32067;BME280;18573;47.890;35.066;2023-07-20T07:36:05;99946.09;;;27.39;54.40
32067;BME280;18573;47.890;35.066;2023-07-20T07:38:36;99950.47;;;27.53;54.19
32067;BME280;18573;47.890;35.066;2023-07-20T07:41:09;99962.34;;;27.44;54.00
32067;BME280;18573;47.890;35.066;2023-07-20T07:43:38;99949.16;;;27.11;54.63
32067;BME280;18573;47.890;35.066;2023-07-20T07:46:08;99949.16;;;27.11;54.63
32067;BME280;18573;47.890;35.066;2023-07-20T07:48:38;99964.69;;;27.28;54.77
32067;BME280;18573;47.890;35.066;2023-07-20T07:51:07;99964.69;;;27.28;54.77
32067;BME280;18573;47.890;35.066;2023-07-20T07:53:37;99972.11;;;27.21;55.06
32067;BME280;18573;47.890;35.066;2023-07-20T07:56:08;99973.69;;;27.16;55.48
32067;BME280;18573;47.890;35.066;2023-07-20T07:58:37;99973.69;;;27.16;55.48
32067;BME280;18573;47.890;35.066;2023-07-20T08:01:06;99974.14;;;27.18;55.42
32067;BME280;18573;47.890;35.066;2023-07-20T08:03:36;99971.23;;;27.29;55.03
32067;BME280;18573;47.890;35.066;2023-07-20T08:06:06;99969.30;;;27.36;55.34
32067;BME280;18573;47.890;35.066;2023-07-20T08:08:35;99969.30;;;27.36;55.34
32067;BME280;18573;47.890;35.066;2023-07-20T08:11:04;99960.52;;;27.42;55.02
32067;BME280;18573;47.890;35.066;2023-07-20T08:13:35;99968.23;;;27.67;54.24
32067;BME280;18573;47.890;35.066;2023-07-20T08:16:04;99977.12;;;27.79;53.63
32067;BME280;18573;47.890;35.066;2023-07-20T08:18:33;99977.12;;;27.79;53.63
32067;BME280;18573;47.890;35.066;2023-07-20T08:21:03;99969.35;;;27.60;53.86
32067;BME280;18573;47.890;35.066;2023-07-20T08:23:32;99969.35;;;27.60;53.86
32067;BME280;18573;47.890;35.066;2023-07-20T08:26:01;99967.57;;;27.37;54.55
32067;BME280;18573;47.890;35.066;2023-07-20T08:28:31;99967.57;;;27.37;54.55
32067;BME280;18573;47.890;35.066;2023-07-20T08:31:00;99959.12;;;27.75;53.67
32067;BME280;18573;47.890;35.066;2023-07-20T08:33:30;99959.52;;;27.53;54.05
32067;BME280;18573;47.890;35.066;2023-07-20T08:36:02;99970.00;;;27.39;54.01
32067;BME280;18573;47.890;35.066;2023-07-20T08:38:31;99970.00;;;27.39;54.01
32067;BME280;18573;47.890;35.066;2023-07-20T08:41:01;99960.31;;;27.60;54.61
32067;BME280;18573;47.890;35.066;2023-07-20T08:43:32;99960.31;;;27.60;54.61
32067;BME280;18573;47.890;35.066;2023-07-20T08:46:04;99948.30;;;27.64;54.32
32067;BME280;18573;47.890;35.066;2023-07-20T08:48:34;99954.91;;;27.51;54.27
32067;BME280;18573;47.890;35.066;2023-07-20T08:51:04;99954.91;;;27.51;54.27
32067;BME280;18573;47.890;35.066;2023-07-20T08:53:34;99959.15;;;27.42;54.92
32067;BME280;18573;47.890;35.066;2023-07-20T08:56:04;99953.89;;;27.56;54.45
32067;BME280;18573;47.890;35.066;2023-07-20T08:58:34;99953.89;;;27.56;54.45
32067;BME280;18573;47.890;35.066;2023-07-20T09:01:04;99957.25;;;27.67;54.30
32067;BME280;18573;47.890;35.066;2023-07-20T09:03:35;99964.75;;;27.79;53.98
32067;BME280;18573;47.890;35.066;2023-07-20T09:06:06;99961.14;;;27.66;54.29
32067;BME280;18573;47.890;35.066;2023-07-20T09:08:40;99970.34;;;27.76;53.96
32067;BME280;18573;47.890;35.066;2023-07-20T09:11:11;99971.11;;;27.71;54.07
32067;BME280;18573;47.890;35.066;2023-07-20T09:13:41;99971.11;;;27.71;54.07
32067;BME280;18573;47.890;35.066;2023-07-20T09:16:16;99967.30;;;27.57;54.79
32067;BME280;18573;47.890;35.066;2023-07-20T09:18:45;99975.67;;;27.61;54.29
32067;BME280;18573;47.890;35.066;2023-07-20T09:21:17;99975.67;;;27.61;54.29
32067;BME280;18573;47.890;35.066;2023-07-20T09:23:46;99978.42;;;27.61;54.01
32067;BME280;18573;47.890;35.066;2023-07-20T09:26:17;99978.42;;;27.61;54.01
32067;BME280;18573;47.890;35.066;2023-07-20T09:28:52;99978.61;;;27.49;54.13
32067;BME280;18573;47.890;35.066;2023-07-20T09:31:22;99978.06;;;27.56;55.39
32067;BME280;18573;47.890;35.066;2023-07-20T09:33:54;99989.58;;;27.43;55.60
32067;BME280;18573;47.890;35.066;2023-07-20T09:36:27;99989.58;;;27.43;55.60
32067;BME280;18573;47.890;35.066;2023-07-20T09:38:59;99990.52;;;27.06;57.15
32067;BME280;18573;47.890;35.066;2023-07-20T09:41:30;99999.00;;;26.86;56.86
32067;BME280;18573;47.890;35.066;2023-07-20T09:44:02;99999.00;;;26.86;56.86
32067;BME280;18573;47.890;35.066;2023-07-20T09:46:41;100013.57;;;26.78;57.66
32067;BME280;18573;47.890;35.066;2023-07-20T09:49:13;100013.57;;;26.78;57.66
32067;BME280;18573;47.890;35.066;2023-07-20T09:51:45;100001.64;;;26.53;57.59
32067;BME280;18573;47.890;35.066;2023-07-20T09:54:15;100007.74;;;26.43;56.96
32067;BME280;18573;47.890;35.066;2023-07-20T09:56:44;100006.73;;;26.24;56.85
32067;BME280;18573;47.890;35.066;2023-07-20T09:59:14;100000.48;;;26.15;57.18
32067;BME280;18573;47.890;35.066;2023-07-20T10:01:44;100000.48;;;26.15;57.18
32067;BME280;18573;47.890;35.066;2023-07-20T10:04:16;99998.16;;;26.11;56.87
32067;BME280;18573;47.890;35.066;2023-07-20T10:06:50;100014.57;;;26.20;56.23
32067;BME280;18573;47.890;35.066;2023-07-20T10:09:22;100010.88;;;26.16;56.19
32067;BME280;18573;47.890;35.066;2023-07-20T10:11:53;100007.86;;;26.47;55.32
32067;BME280;18573;47.890;35.066;2023-07-20T10:14:28;100007.86;;;26.47;55.32
32067;BME280;18573;47.890;35.066;2023-07-20T10:17:01;100013.70;;;26.37;55.06
32067;BME280;18573;47.890;35.066;2023-07-20T10:22:19;100012.04;;;26.53;54.72
32067;BME280;18573;47.890;35.066;2023-07-20T10:24:50;100010.77;;;26.42;55.09
32067;BME280;18573;47.890;35.066;2023-07-20T10:27:22;100021.30;;;26.55;54.94
32067;BME280;18573;47.890;35.066;2023-07-20T10:29:52;100021.00;;;26.47;55.30
32067;BME280;18573;47.890;35.066;2023-07-20T10:32:23;100028.91;;;26.49;55.42
32067;BME280;18573;47.890;35.066;2023-07-20T10:34:55;100036.33;;;26.63;55.16
32067;BME280;18573;47.890;35.066;2023-07-20T10:37:59;100027.41;;;26.75;56.19
32067;BME280;18573;47.890;35.066;2023-07-20T10:40:38;100022.72;;;26.75;55.51
32067;BME280;18573;47.890;35.066;2023-07-20T10:43:09;100022.72;;;26.75;55.51
32067;BME280;18573;47.890;35.066;2023-07-20T10:45:41;100026.02;;;26.60;55.91
32067;BME280;18573;47.890;35.066;2023-07-20T10:48:24;100032.16;;;26.34;57.72
32067;BME280;18573;47.890;35.066;2023-07-20T10:51:11;100028.76;;;26.60;56.57
32067;BME280;18573;47.890;35.066;2023-07-20T10:53:42;100028.76;;;26.60;56.57
32067;BME280;18573;47.890;35.066;2023-07-20T10:56:13;100016.37;;;26.69;56.50
32067;BME280;18573;47.890;35.066;2023-07-20T10:58:43;100006.96;;;26.99;55.02
32067;BME280;18573;47.890;35.066;2023-07-20T11:01:15;100006.96;;;26.99;55.02
32067;BME280;18573;47.890;35.066;2023-07-20T11:03:50;99992.83;;;27.24;54.26
32067;BME280;18573;47.890;35.066;2023-07-20T11:09:08;99992.19;;;27.34;53.64
32067;BME280;18573;47.890;35.066;2023-07-20T11:11:47;99992.19;;;27.34;53.64
32067;BME280;18573;47.890;35.066;2023-07-20T11:14:24;99979.89;;;27.58;52.92
32067;BME280;18573;47.890;35.066;2023-07-20T11:16:54;99959.20;;;27.67;52.74
32067;BME280;18573;47.890;35.066;2023-07-20T11:19:25;99967.38;;;27.42;53.19
32067;BME280;18573;47.890;35.066;2023-07-20T11:21:57;99967.38;;;27.42;53.19
32067;BME280;18573;47.890;35.066;2023-07-20T11:24:28;99956.67;;;27.62;52.67
32067;BME280;18573;47.890;35.066;2023-07-20T11:26:58;99949.23;;;27.56;52.91
32067;BME280;18573;47.890;35.066;2023-07-20T11:29:27;99949.23;;;27.56;52.91
32067;BME280;18573;47.890;35.066;2023-07-20T11:31:58;99938.23;;;27.56;52.96
32067;BME280;18573;47.890;35.066;2023-07-20T11:34:29;99938.23;;;27.56;52.96
32067;BME280;18573;47.890;35.066;2023-07-20T11:37:01;99941.88;;;27.60;52.56
32067;BME280;18573;47.890;35.066;2023-07-20T11:39:33;99946.06;;;27.72;52.43
32067;BME280;18573;47.890;35.066;2023-07-20T11:42:03;99944.05;;;27.88;52.23
32067;BME280;18573;47.890;35.066;2023-07-20T11:44:34;99940.02;;;27.85;51.97
32067;BME280;18573;47.890;35.066;2023-07-20T11:47:13;99933.28;;;28.01;51.56
32067;BME280;18573;47.890;35.066;2023-07-20T11:49:44;99928.91;;;28.12;51.48
32067;BME280;18573;47.890;35.066;2023-07-20T11:52:16;99928.91;;;28.12;51.48
32067;BME280;18573;47.890;35.066;2023-07-20T11:57:07;99911.97;;;27.98;52.08
32067;BME280;18573;47.890;35.066;2023-07-20T11:59:38;99911.97;;;27.98;52.08
32067;BME280;18573;47.890;35.066;2023-07-20T12:02:08;99908.64;;;28.17;51.89
32067;BME280;18573;47.890;35.066;2023-07-20T12:04:38;99903.03;;;27.95;51.40
32067;BME280;18573;47.890;35.066;2023-07-20T12:07:08;99905.34;;;27.93;52.00
32067;BME280;18573;47.890;35.066;2023-07-20T12:09:37;99915.27;;;27.73;52.48
32067;BME280;18573;47.890;35.066;2023-07-20T12:12:11;99911.02;;;27.69;52.94
32067;BME280;18573;47.890;35.066;2023-07-20T12:14:41;99911.02;;;27.69;52.94
32067;BME280;18573;47.890;35.066;2023-07-20T12:17:10;99908.92;;;27.54;52.31
32067;BME280;18573;47.890;35.066;2023-07-20T12:19:39;99915.81;;;27.66;52.91
32067;BME280;18573;47.890;35.066;2023-07-20T12:22:09;99916.45;;;27.39;53.95
32067;BME280;18573;47.890;35.066;2023-07-20T12:24:39;99916.45;;;27.39;53.95
32067;BME280;18573;47.890;35.066;2023-07-20T12:27:08;99920.62;;;27.24;54.47
32067;BME280;18573;47.890;35.066;2023-07-20T12:29:39;99921.89;;;26.99;54.65
32067;BME280;18573;47.890;35.066;2023-07-20T12:32:08;99921.89;;;26.99;54.65
32067;BME280;18573;47.890;35.066;2023-07-20T12:34:37;99925.66;;;27.01;54.74
32067;BME280;18573;47.890;35.066;2023-07-20T12:37:07;99919.84;;;26.75;54.27
32067;BME280;18573;47.890;35.066;2023-07-20T12:39:37;99919.84;;;26.75;54.27
32067;BME280;18573;47.890;35.066;2023-07-20T12:42:09;99916.30;;;26.75;54.12
32067;BME280;18573;47.890;35.066;2023-07-20T12:44:39;99925.35;;;26.82;54.17
32067;BME280;18573;47.890;35.066;2023-07-20T12:47:10;99920.70;;;26.67;54.58
32067;BME280;18573;47.890;35.066;2023-07-20T12:49:39;99920.70;;;26.67;54.58
32067;BME280;18573;47.890;35.066;2023-07-20T12:52:10;99905.69;;;26.59;54.57
32067;BME280;18573;47.890;35.066;2023-07-20T12:54:39;99915.55;;;26.30;55.12
32067;BME280;18573;47.890;35.066;2023-07-20T12:57:09;99912.97;;;26.25;53.82
32067;BME280;18573;47.890;35.066;2023-07-20T12:59:40;99900.80;;;25.99;53.69
32067;BME280;18573;47.890;35.066;2023-07-20T13:02:09;99915.57;;;25.92;54.16
32067;BME280;18573;47.890;35.066;2023-07-20T13:04:38;99914.63;;;25.88;54.84
32067;BME280;18573;47.890;35.066;2023-07-20T13:07:09;99916.19;;;25.97;55.03
32067;BME280;18573;47.890;35.066;2023-07-20T13:09:41;99911.94;;;26.23;55.58
32067;BME280;18573;47.890;35.066;2023-07-20T13:12:11;99914.12;;;26.39;54.61
32067;BME280;18573;47.890;35.066;2023-07-20T13:14:41;99914.12;;;26.39;54.61